Mansfield Hollow, Connecticut
Current Conditions -  °F | °C
As of 11:52 AM on Saturday 22 Nov 2014 (Local Time) from KIJD Reporting Station
Clear Clear  
Wind Chill: 33°   Ceiling: Unl
Heat Index: 40°   Visibility: 10mi
Dew Point:   Wind: 12mph
Humidity: 27%   Direction: 200°SSW
Pressure: 30.3"   Gusts: NA
Location:  41.7742°N, 72.196°W
Report Text: KIJD 221652Z AUTO 20010KT 10SM CLR 04/M13 A3030 RMK AO2 SLP262 T00441133
Loading
Personal Weather Stations






























Interactive Weather Map New forecast layout! Learn more

10-Day Weather Forecast

Advertisements
Track Severe Weather on mobile